KSOW/SOW METAR and TAF weather

Enter ICAO airport designator
Station Type Date Time Source
KSOW METAR 2020/11/28 20:15 UTC NOAA

KSOW 282015Z AUTO VRB05KT 9SM CLR 06/M02 A3025 RMK AO2


Station Type Date Time Source
KSOW Decoded METAR 2020/11/28 20:15 UTC NOAA

Show Low, Show Low Regional Airport, AZ, United States (KSOW) 34-15-55N 110-00-20W
Nov 28, 2020 - 03:15 PM EST / 2020.11.28 2015 UTC
Wind: Variable at 6 MPH (5 KT):0
Visibility: 9 mile(s):0
Sky conditions: clear
Temperature: 42 F (6 C)
Dew Point: 28 F (-2 C)
Relative Humidity: 56%
Pressure (altimeter): 30.25 in. Hg (1024 hPa)
ob: KSOW 282015Z AUTO VRB05KT 9SM CLR 06/M02 A3025 RMK AO2
cycle: 20

Station Type Date Time Source
KSOW TAF UTC NOAA

Error!

Example: see airport list